Time;durP1;ratioP1;P1;durP2;ratioP2;P2;SDS_P1;SDS_P2;PMS_P1;PMS_P2;Temp;Humidity;BMP_temperature;BMP_pressure;BME280_temperature;BME280_humidity;BME280_pressure;Samples;Min_cycle;Max_cycle;Signal;HPM_P1;HPM_P2
2023/08/17 00:00:46;;;;;;;5.70;2.75;;;;;;;;;;4992764;28;20026;-64
2023/08/17 00:03:11;;;;;;;5.97;2.30;;;;;;;;;;4993162;28;20030;-65
2023/08/17 00:05:37;;;;;;;7.45;2.00;;;;;;;;;;4992970;28;20341;-63
2023/08/17 00:08:02;;;;;;;5.35;2.40;;;;;;;;;;4992877;28;20046;-61
2023/08/17 00:10:28;;;;;;;8.48;2.55;;;;;;;;;;4992883;28;20042;-64
2023/08/17 00:12:54;;;;;;;4.30;2.20;;;;;;;;;;4992770;28;20113;-64
2023/08/17 00:15:19;;;;;;;6.15;2.10;;;;;;;;;;4992725;28;20022;-62
2023/08/17 00:17:45;;;;;;;7.57;2.20;;;;;;;;;;4992684;28;20029;-62
2023/08/17 00:20:11;;;;;;;5.32;1.98;;;;;;;;;;4992815;28;20467;-61
2023/08/17 00:22:36;;;;;;;6.82;1.90;;;;;;;;;;4973818;28;20042;-64
2023/08/17 00:25:04;;;;;;;11.20;5.57;;;;;;;;;;4971930;28;20042;-64
2023/08/17 00:27:31;;;;;;;13.80;4.45;;;;;;;;;;4973261;28;20039;-63
2023/08/17 00:29:57;;;;;;;6.90;2.30;;;;;;;;;;4973078;28;20023;-63
2023/08/17 00:32:22;;;;;;;4.35;2.10;;;;;;;;;;4971930;28;20503;-63
2023/08/17 00:34:48;;;;;;;5.57;2.20;;;;;;;;;;4973196;28;20031;-64
2023/08/17 00:37:13;;;;;;;6.82;1.98;;;;;;;;;;4973359;28;20023;-61
2023/08/17 00:39:39;;;;;;;5.68;2.13;;;;;;;;;;4976577;28;20033;-61
2023/08/17 00:42:04;;;;;;;6.55;2.22;;;;;;;;;;4976801;28;20035;-61
2023/08/17 00:44:30;;;;;;;7.85;2.10;;;;;;;;;;4976438;28;20385;-61
2023/08/17 00:46:55;;;;;;;4.88;2.17;;;;;;;;;;4976600;28;20030;-61
2023/08/17 00:49:22;;;;;;;5.43;2.20;;;;;;;;;;4976570;28;20023;-60
2023/08/17 00:51:48;;;;;;;3.95;1.90;;;;;;;;;;4976452;28;20067;-61
2023/08/17 00:54:15;;;;;;;3.97;2.08;;;;;;;;;;4976535;28;20396;-60
2023/08/17 00:56:40;;;;;;;5.90;2.15;;;;;;;;;;4976425;28;20118;-61
2023/08/17 00:59:06;;;;;;;6.38;2.00;;;;;;;;;;4976091;28;20067;-61
2023/08/17 01:01:31;;;;;;;4.70;1.80;;;;;;;;;;4976243;28;20055;-60
2023/08/17 01:03:57;;;;;;;4.25;1.88;;;;;;;;;;4976298;28;20023;-61
2023/08/17 01:06:22;;;;;;;6.70;1.83;;;;;;;;;;4976311;28;20353;-61
2023/08/17 01:08:48;;;;;;;5.57;1.80;;;;;;;;;;4976093;28;20031;-61
2023/08/17 01:11:25;;;;;;;4.30;1.83;;;;;;;;;;4976181;28;20035;-63
2023/08/17 01:14:01;;;;;;;7.05;2.17;;;;;;;;;;4976059;28;20027;-60
2023/08/17 01:16:38;;;;;;;6.28;2.10;;;;;;;;;;4976154;28;20116;-62
2023/08/17 01:19:08;;;;;;;5.10;2.00;;;;;;;;;;4976089;28;20034;-62
2023/08/17 01:21:45;;;;;;;6.03;2.05;;;;;;;;;;4984983;28;20018;-60
2023/08/17 01:24:11;;;;;;;5.65;2.20;;;;;;;;;;4977564;28;20046;-61
2023/08/17 01:26:37;;;;;;;6.18;2.05;;;;;;;;;;4974449;28;20106;-61
2023/08/17 01:29:03;;;;;;;4.53;2.00;;;;;;;;;;4975897;28;20122;-61
2023/08/17 01:31:40;;;;;;;7.72;2.00;;;;;;;;;;4975628;28;20476;-61
2023/08/17 01:34:09;;;;;;;4.85;1.77;;;;;;;;;;4975765;28;20033;-63
2023/08/17 01:36:39;;;;;;;4.40;1.90;;;;;;;;;;4975788;28;20420;-61
2023/08/17 01:39:05;;;;;;;6.35;1.90;;;;;;;;;;4975725;28;20476;-62
2023/08/17 01:41:32;;;;;;;5.25;2.00;;;;;;;;;;4974208;28;20085;-61
2023/08/17 01:44:00;;;;;;;7.45;2.08;;;;;;;;;;4975528;28;20491;-61
2023/08/17 01:46:34;;;;;;;5.35;1.95;;;;;;;;;;4975619;28;20062;-61
2023/08/17 01:49:00;;;;;;;4.18;1.70;;;;;;;;;;4975012;28;20075;-61
2023/08/17 01:51:25;;;;;;;5.68;2.05;;;;;;;;;;4975087;28;20110;-61
2023/08/17 01:53:51;;;;;;;4.70;1.80;;;;;;;;;;4975499;28;20030;-61
2023/08/17 01:56:17;;;;;;;4.13;1.70;;;;;;;;;;4974997;28;20023;-62
2023/08/17 01:58:42;;;;;;;7.78;1.60;;;;;;;;;;4974800;28;20030;-62
2023/08/17 02:01:08;;;;;;;3.92;1.52;;;;;;;;;;4973868;28;20472;-61
2023/08/17 02:03:33;;;;;;;5.45;1.88;;;;;;;;;;4975437;28;20034;-61
2023/08/17 02:05:59;;;;;;;4.78;1.70;;;;;;;;;;4974066;28;20035;-61
2023/08/17 02:08:24;;;;;;;6.22;2.00;;;;;;;;;;4975114;28;20034;-61
2023/08/17 02:10:50;;;;;;;4.00;1.70;;;;;;;;;;4975008;28;20027;-62
2023/08/17 02:13:16;;;;;;;4.93;1.92;;;;;;;;;;4975137;28;20457;-61
2023/08/17 02:15:42;;;;;;;5.53;1.90;;;;;;;;;;4975068;28;20045;-62
2023/08/17 02:18:08;;;;;;;4.70;2.17;;;;;;;;;;4975003;28;20544;-61
2023/08/17 02:20:34;;;;;;;6.22;1.90;;;;;;;;;;4973771;28;20358;-60
2023/08/17 02:22:59;;;;;;;6.03;1.80;;;;;;;;;;4982345;28;20054;-66
2023/08/17 02:25:25;;;;;;;6.85;1.75;;;;;;;;;;4979408;28;20434;-66
2023/08/17 02:27:50;;;;;;;5.18;2.30;;;;;;;;;;4975009;28;20546;-62
2023/08/17 02:30:16;;;;;;;9.77;1.95;;;;;;;;;;4974814;28;20030;-65
2023/08/17 02:32:41;;;;;;;4.68;1.73;;;;;;;;;;4974671;28;20039;-62
2023/08/17 02:35:07;;;;;;;4.80;2.03;;;;;;;;;;4974521;28;20027;-62
2023/08/17 02:37:32;;;;;;;5.05;2.22;;;;;;;;;;4974645;28;20357;-66
2023/08/17 02:39:58;;;;;;;2.78;1.90;;;;;;;;;;4974413;28;20093;-65
2023/08/17 02:42:23;;;;;;;5.85;2.00;;;;;;;;;;4974599;28;20429;-62
2023/08/17 02:44:49;;;;;;;5.75;2.10;;;;;;;;;;4974555;28;20019;-64
2023/08/17 02:47:14;;;;;;;4.68;2.05;;;;;;;;;;4974603;28;20039;-68
2023/08/17 02:49:40;;;;;;;4.97;1.88;;;;;;;;;;4974513;28;20035;-67
2023/08/17 02:52:05;;;;;;;6.45;2.10;;;;;;;;;;4974487;28;20030;-69
2023/08/17 02:54:31;;;;;;;7.07;2.42;;;;;;;;;;4974232;28;20034;-62
2023/08/17 02:56:57;;;;;;;6.88;2.00;;;;;;;;;;4974334;28;20049;-66
2023/08/17 02:59:22;;;;;;;6.55;2.60;;;;;;;;;;4974293;28;20034;-64
2023/08/17 03:01:48;;;;;;;8.90;2.20;;;;;;;;;;4974271;28;20037;-64
2023/08/17 03:04:13;;;;;;;6.65;2.35;;;;;;;;;;4974317;28;20124;-67
2023/08/17 03:06:39;;;;;;;6.82;2.40;;;;;;;;;;4974404;28;20019;-64
2023/08/17 03:09:04;;;;;;;8.40;2.67;;;;;;;;;;4974029;28;20019;-61
2023/08/17 03:11:30;;;;;;;9.05;2.60;;;;;;;;;;4974156;28;20372;-66
2023/08/17 03:13:59;;;;;;;6.65;3.10;;;;;;;;;;4974371;28;20257;-67
2023/08/17 03:16:26;;;;;;;7.93;2.75;;;;;;;;;;4974098;28;20029;-63
2023/08/17 03:18:52;;;;;;;8.25;2.85;;;;;;;;;;4974175;28;20035;-66
2023/08/17 03:21:18;;;;;;;7.50;2.80;;;;;;;;;;4974168;28;20023;-63
2023/08/17 03:23:44;;;;;;;7.90;2.65;;;;;;;;;;4986957;28;20049;-63
2023/08/17 03:26:09;;;;;;;7.55;2.85;;;;;;;;;;4975847;28;20026;-64
2023/08/17 03:28:35;;;;;;;9.55;3.25;;;;;;;;;;4974062;28;20026;-64
2023/08/17 03:31:01;;;;;;;9.57;2.75;;;;;;;;;;4973969;28;20424;-66
2023/08/17 03:33:27;;;;;;;5.45;3.00;;;;;;;;;;4973895;28;20187;-64
2023/08/17 03:35:52;;;;;;;6.25;3.08;;;;;;;;;;4974023;28;20054;-63
2023/08/17 03:38:18;;;;;;;5.15;2.47;;;;;;;;;;4973745;28;20057;-63
2023/08/17 03:40:43;;;;;;;15.35;6.35;;;;;;;;;;4973723;28;20061;-63
2023/08/17 03:43:08;;;;;;;14.30;6.20;;;;;;;;;;4974000;28;20031;-63
2023/08/17 03:45:34;;;;;;;8.63;3.50;;;;;;;;;;4972516;28;20054;-65
2023/08/17 03:47:59;;;;;;;8.48;2.65;;;;;;;;;;4973984;28;20479;-66
2023/08/17 03:50:27;;;;;;;8.55;2.88;;;;;;;;;;4973890;28;20473;-67
2023/08/17 03:52:53;;;;;;;8.95;2.80;;;;;;;;;;4973357;28;20031;-69
2023/08/17 03:55:18;;;;;;;5.60;2.35;;;;;;;;;;4973735;28;20031;-65
2023/08/17 03:57:44;;;;;;;9.35;3.35;;;;;;;;;;4973769;28;20023;-63
2023/08/17 04:00:10;;;;;;;10.95;2.85;;;;;;;;;;4973800;28;20372;-65
2023/08/17 04:02:35;;;;;;;6.45;2.40;;;;;;;;;;4973908;28;20132;-64
2023/08/17 04:05:01;;;;;;;7.75;2.88;;;;;;;;;;4973727;28;20034;-61
2023/08/17 04:07:26;;;;;;;8.40;2.90;;;;;;;;;;4973375;28;20031;-63
2023/08/17 04:09:52;;;;;;;6.20;2.20;;;;;;;;;;4973609;28;20035;-65
2023/08/17 04:12:18;;;;;;;8.05;2.85;;;;;;;;;;4972244;28;20130;-69
2023/08/17 04:14:44;;;;;;;7.10;2.40;;;;;;;;;;4977430;28;20174;-66
2023/08/17 04:17:09;;;;;;;4.78;2.13;;;;;;;;;;4977371;28;20512;-65
2023/08/17 04:19:35;;;;;;;7.82;2.60;;;;;;;;;;4977266;28;20049;-66
2023/08/17 04:22:00;;;;;;;8.38;2.53;;;;;;;;;;4976984;28;20033;-63
2023/08/17 04:24:26;;;;;;;6.45;2.70;;;;;;;;;;4992118;28;20043;-69
2023/08/17 04:26:51;;;;;;;6.57;2.35;;;;;;;;;;4977084;28;20085;-67
2023/08/17 04:29:16;;;;;;;4.03;2.65;;;;;;;;;;4977111;28;20030;-63
2023/08/17 04:31:42;;;;;;;6.13;2.30;;;;;;;;;;4976959;28;20022;-68
2023/08/17 04:34:07;;;;;;;5.15;2.53;;;;;;;;;;4977026;28;20097;-63
2023/08/17 04:36:33;;;;;;;6.93;2.90;;;;;;;;;;4976760;28;20018;-62
2023/08/17 04:38:58;;;;;;;7.70;2.90;;;;;;;;;;4976915;28;20475;-61
2023/08/17 04:41:24;;;;;;;7.55;3.25;;;;;;;;;;4976895;28;20081;-63
2023/08/17 04:43:49;;;;;;;5.47;2.55;;;;;;;;;;4976908;28;20026;-63
2023/08/17 04:46:15;;;;;;;6.65;2.95;;;;;;;;;;4976646;28;20038;-61
2023/08/17 04:48:40;;;;;;;8.77;3.00;;;;;;;;;;4976619;28;20077;-62
2023/08/17 04:51:06;;;;;;;5.97;2.70;;;;;;;;;;4976436;28;20054;-62
2023/08/17 04:53:32;;;;;;;5.85;2.72;;;;;;;;;;4976368;28;20039;-65
2023/08/17 04:55:58;;;;;;;7.85;2.75;;;;;;;;;;4976440;28;20030;-65
2023/08/17 04:58:24;;;;;;;8.10;2.40;;;;;;;;;;4976425;28;20035;-66
2023/08/17 05:00:49;;;;;;;4.93;2.38;;;;;;;;;;4976447;28;20490;-64
2023/08/17 05:03:15;;;;;;;4.95;2.30;;;;;;;;;;4976555;28;20031;-63
2023/08/17 05:05:40;;;;;;;4.25;2.00;;;;;;;;;;4976391;28;20126;-66
2023/08/17 05:08:05;;;;;;;7.32;2.38;;;;;;;;;;4976349;28;20031;-64
2023/08/17 05:10:31;;;;;;;8.68;2.17;;;;;;;;;;4976326;28;20026;-70
2023/08/17 05:12:56;;;;;;;6.22;2.30;;;;;;;;;;4976227;28;20121;-64
2023/08/17 05:15:22;;;;;;;6.18;2.00;;;;;;;;;;4976273;28;20025;-65
2023/08/17 05:17:47;;;;;;;7.28;2.55;;;;;;;;;;4958668;28;20420;-70
2023/08/17 05:20:13;;;;;;;5.35;2.10;;;;;;;;;;4976204;28;20027;-66
2023/08/17 05:22:38;;;;;;;7.63;1.95;;;;;;;;;;4980692;28;20092;-63
2023/08/17 05:25:04;;;;;;;4.25;1.67;;;;;;;;;;4985358;28;20023;-66
2023/08/17 05:27:30;;;;;;;8.60;1.98;;;;;;;;;;4975620;28;20022;-65
2023/08/17 05:29:55;;;;;;;4.10;1.80;;;;;;;;;;4975941;28;20162;-63
2023/08/17 05:32:21;;;;;;;5.47;1.90;;;;;;;;;;4975642;28;20113;-65
2023/08/17 05:34:47;;;;;;;7.18;1.67;;;;;;;;;;4975726;28;20035;-64
2023/08/17 05:37:12;;;;;;;5.30;1.50;;;;;;;;;;4975876;28;20027;-64
2023/08/17 05:39:39;;;;;;;8.63;1.88;;;;;;;;;;4975955;28;20126;-65
2023/08/17 05:42:04;;;;;;;6.82;1.75;;;;;;;;;;4975750;28;20034;-62
2023/08/17 05:44:30;;;;;;;6.63;1.92;;;;;;;;;;4975723;28;20098;-62
2023/08/17 05:46:55;;;;;;;3.97;1.58;;;;;;;;;;4975609;28;20025;-63
2023/08/17 05:49:21;;;;;;;8.35;1.90;;;;;;;;;;4975612;28;20062;-62
2023/08/17 05:51:46;;;;;;;3.63;1.90;;;;;;;;;;4975485;28;20137;-70
2023/08/17 05:54:12;;;;;;;5.65;1.60;;;;;;;;;;4975267;28;20037;-65
2023/08/17 05:56:37;;;;;;;3.67;1.80;;;;;;;;;;4975584;28;20077;-65
2023/08/17 05:59:03;;;;;;;5.18;1.70;;;;;;;;;;4974211;28;20031;-66
2023/08/17 06:01:28;;;;;;;4.75;1.90;;;;;;;;;;4975205;28;20058;-69
2023/08/17 06:03:54;;;;;;;6.13;2.50;;;;;;;;;;4975284;28;20062;-70
2023/08/17 06:06:19;;;;;;;4.82;1.98;;;;;;;;;;4975243;28;20019;-72
2023/08/17 06:08:45;;;;;;;6.28;1.70;;;;;;;;;;4975184;28;20034;-69
2023/08/17 06:11:10;;;;;;;4.72;1.48;;;;;;;;;;4975323;28;20483;-67
2023/08/17 06:13:36;;;;;;;3.75;1.80;;;;;;;;;;4975013;28;20078;-63
2023/08/17 06:16:02;;;;;;;4.60;1.90;;;;;;;;;;4975040;28;20516;-69
2023/08/17 06:18:27;;;;;;;6.43;1.75;;;;;;;;;;4975000;28;20019;-66
2023/08/17 06:20:53;;;;;;;4.70;1.83;;;;;;;;;;4975009;28;20384;-61
2023/08/17 06:23:20;;;;;;;4.60;1.60;;;;;;;;;;4984704;28;20065;-64
2023/08/17 06:25:45;;;;;;;3.42;1.65;;;;;;;;;;4979824;28;20031;-62
2023/08/17 06:28:10;;;;;;;5.97;1.80;;;;;;;;;;4974761;28;20026;-65
2023/08/17 06:30:36;;;;;;;3.17;1.60;;;;;;;;;;4974525;28;20050;-66
2023/08/17 06:33:01;;;;;;;4.50;1.20;;;;;;;;;;4974598;28;20105;-68
2023/08/17 06:35:27;;;;;;;4.25;1.40;;;;;;;;;;4974443;28;20035;-62
2023/08/17 06:37:56;;;;;;;3.20;1.40;;;;;;;;;;4974678;28;20034;-65
2023/08/17 06:40:21;;;;;;;4.53;1.20;;;;;;;;;;4974546;28;20301;-67
2023/08/17 06:42:47;;;;;;;5.57;1.35;;;;;;;;;;4974512;28;20033;-65
2023/08/17 06:45:12;;;;;;;4.50;1.60;;;;;;;;;;4970888;28;20026;-69
2023/08/17 06:47:38;;;;;;;7.45;1.60;;;;;;;;;;4973263;28;20484;-62
2023/08/17 06:50:04;;;;;;;4.95;1.20;;;;;;;;;;4979792;28;20432;-61
2023/08/17 06:52:29;;;;;;;2.28;1.13;;;;;;;;;;4984208;28;20026;-61
2023/08/17 06:54:54;;;;;;;3.13;1.17;;;;;;;;;;4977438;28;20058;-61
2023/08/17 06:57:21;;;;;;;4.80;1.17;;;;;;;;;;4980132;28;20018;-61
2023/08/17 06:59:47;;;;;;;3.33;1.30;;;;;;;;;;4985710;28;20035;-62
2023/08/17 07:02:12;;;;;;;3.72;1.40;;;;;;;;;;4973982;28;20096;-62
2023/08/17 07:04:38;;;;;;;4.97;1.40;;;;;;;;;;4985899;28;20066;-63
2023/08/17 07:07:03;;;;;;;7.45;1.60;;;;;;;;;;4993266;28;20551;-62
2023/08/17 07:09:28;;;;;;;6.38;1.50;;;;;;;;;;4993163;28;20180;-63
2023/08/17 07:11:54;;;;;;;4.72;1.45;;;;;;;;;;4993050;28;20049;-61
2023/08/17 07:14:19;;;;;;;4.88;1.55;;;;;;;;;;4992996;28;20053;-62
2023/08/17 07:16:45;;;;;;;5.95;1.48;;;;;;;;;;4993174;28;20040;-62
2023/08/17 07:19:11;;;;;;;5.25;1.80;;;;;;;;;;4993084;28;20030;-62
2023/08/17 07:21:37;;;;;;;5.85;1.65;;;;;;;;;;4992817;28;20026;-62
2023/08/17 07:24:12;;;;;;;4.95;1.40;;;;;;;;;;4976060;28;20042;-61
2023/08/17 07:26:37;;;;;;;5.22;1.52;;;;;;;;;;4970839;28;20477;-62
2023/08/17 07:29:03;;;;;;;5.68;1.33;;;;;;;;;;4976052;28;20046;-61
2023/08/17 07:31:28;;;;;;;5.82;1.60;;;;;;;;;;4992798;28;20030;-65
2023/08/17 07:33:54;;;;;;;6.28;1.30;;;;;;;;;;4988899;28;20027;-62
2023/08/17 07:36:19;;;;;;;8.77;1.88;;;;;;;;;;4973746;28;20468;-62
2023/08/17 07:38:44;;;;;;;8.38;3.50;;;;;;;;;;4973645;28;20139;-61
2023/08/17 07:41:10;;;;;;;4.03;1.23;;;;;;;;;;4983688;28;20030;-62
2023/08/17 07:43:35;;;;;;;4.80;1.25;;;;;;;;;;4992874;28;20034;-62
2023/08/17 07:46:01;;;;;;;5.57;1.30;;;;;;;;;;4992941;28;20126;-62
2023/08/17 07:48:26;;;;;;;3.55;1.00;;;;;;;;;;4991623;28;20022;-62
2023/08/17 07:50:53;;;;;;;5.28;1.20;;;;;;;;;;4977733;28;20027;-62
2023/08/17 07:53:19;;;;;;;3.95;1.38;;;;;;;;;;4977492;28;20030;-61
2023/08/17 07:55:45;;;;;;;6.47;1.20;;;;;;;;;;4977639;28;20065;-61
2023/08/17 07:58:11;;;;;;;4.45;1.70;;;;;;;;;;4977236;28;20027;-61
2023/08/17 08:00:36;;;;;;;4.18;1.10;;;;;;;;;;4977546;28;20392;-62
2023/08/17 08:03:02;;;;;;;2.50;1.00;;;;;;;;;;4978576;28;20023;-61
2023/08/17 08:05:28;;;;;;;6.97;1.38;;;;;;;;;;4996751;28;20031;-62
2023/08/17 08:07:53;;;;;;;4.60;1.15;;;;;;;;;;4997012;28;20037;-62
2023/08/17 08:10:19;;;;;;;3.22;1.27;;;;;;;;;;4996722;28;20108;-61
2023/08/17 08:12:44;;;;;;;2.88;1.02;;;;;;;;;;4996415;28;20034;-62
2023/08/17 08:15:10;;;;;;;3.10;1.08;;;;;;;;;;4996651;28;20132;-62
2023/08/17 08:17:35;;;;;;;2.88;1.10;;;;;;;;;;4996515;28;20084;-63
2023/08/17 08:20:01;;;;;;;2.83;1.00;;;;;;;;;;4996681;28;20054;-62
2023/08/17 08:22:27;;;;;;;5.43;1.17;;;;;;;;;;4996541;28;20061;-62
2023/08/17 08:24:52;;;;;;;7.30;1.15;;;;;;;;;;4989175;28;20053;-62
2023/08/17 08:27:17;;;;;;;3.13;1.10;;;;;;;;;;4976621;28;20042;-62
2023/08/17 08:29:43;;;;;;;4.28;1.02;;;;;;;;;;4976965;28;20074;-62
2023/08/17 08:32:08;;;;;;;5.07;1.38;;;;;;;;;;4976862;28;20030;-61
2023/08/17 08:34:34;;;;;;;3.65;1.10;;;;;;;;;;4976949;28;20030;-62
2023/08/17 08:36:59;;;;;;;4.35;1.17;;;;;;;;;;4976661;28;20483;-62
2023/08/17 08:39:26;;;;;;;2.13;1.10;;;;;;;;;;4976588;28;20085;-62
2023/08/17 08:41:52;;;;;;;4.45;1.27;;;;;;;;;;4991959;28;20031;-61
2023/08/17 08:44:18;;;;;;;4.20;1.27;;;;;;;;;;4995768;28;20037;-62
2023/08/17 08:46:44;;;;;;;3.13;1.10;;;;;;;;;;4995988;28;20375;-62
2023/08/17 08:49:11;;;;;;;4.63;1.27;;;;;;;;;;4986895;28;20027;-62
2023/08/17 08:51:40;;;;;;;5.15;1.60;;;;;;;;;;4975125;28;20026;-61
2023/08/17 08:54:11;;;;;;;2.40;1.10;;;;;;;;;;4976529;28;20034;-61
2023/08/17 08:56:40;;;;;;;1.85;1.05;;;;;;;;;;4976410;28;20086;-63
2023/08/17 08:59:08;;;;;;;5.95;1.30;;;;;;;;;;4982590;28;20397;-62
2023/08/17 09:01:33;;;;;;;2.55;1.50;;;;;;;;;;4993250;28;20018;-61
2023/08/17 09:04:02;;;;;;;3.63;0.93;;;;;;;;;;4979573;28;20109;-61
2023/08/17 09:06:30;;;;;;;1.95;0.90;;;;;;;;;;4979673;28;20043;-61
2023/08/17 09:08:57;;;;;;;4.90;1.30;;;;;;;;;;4987713;28;20023;-62
2023/08/17 09:11:23;;;;;;;4.03;1.38;;;;;;;;;;4986135;28;20056;-61
2023/08/17 09:13:48;;;;;;;3.30;1.35;;;;;;;;;;4995521;28;20069;-62
2023/08/17 09:16:14;;;;;;;3.75;1.40;;;;;;;;;;4980257;28;20018;-72
2023/08/17 09:18:40;;;;;;;4.22;1.08;;;;;;;;;;4975883;28;20090;-71
2023/08/17 09:21:05;;;;;;;4.05;1.20;;;;;;;;;;4975777;28;20035;-65
2023/08/17 09:23:31;;;;;;;3.95;1.20;;;;;;;;;;4979984;28;20133;-64
2023/08/17 09:25:59;;;;;;;6.25;1.10;;;;;;;;;;4977983;28;20453;-62
2023/08/17 09:28:25;;;;;;;3.03;1.10;;;;;;;;;;4975543;28;20022;-66
2023/08/17 09:30:54;;;;;;;2.58;1.00;;;;;;;;;;4975775;28;20535;-62
2023/08/17 09:33:25;;;;;;;2.40;1.17;;;;;;;;;;4975582;28;20030;-62
2023/08/17 09:35:52;;;;;;;2.47;1.00;;;;;;;;;;4975552;28;20089;-62
2023/08/17 09:38:19;;;;;;;6.15;1.00;;;;;;;;;;4975505;28;20491;-62
2023/08/17 09:40:45;;;;;;;2.85;1.00;;;;;;;;;;4981818;28;20041;-64
2023/08/17 09:43:11;;;;;;;5.05;1.27;;;;;;;;;;4995119;28;20049;-61
2023/08/17 09:45:39;;;;;;;2.75;0.77;;;;;;;;;;4994756;28;20383;-62
2023/08/17 09:48:10;;;;;;;2.78;1.02;;;;;;;;;;4994413;28;20045;-63
2023/08/17 09:50:36;;;;;;;10.63;1.20;;;;;;;;;;4974214;28;20030;-62
2023/08/17 09:53:03;;;;;;;5.28;1.08;;;;;;;;;;4975309;28;20035;-62
2023/08/17 09:55:31;;;;;;;5.93;1.10;;;;;;;;;;4974886;28;20031;-62
2023/08/17 09:58:00;;;;;;;3.05;1.48;;;;;;;;;;4975360;28;20097;-62
2023/08/17 10:00:27;;;;;;;3.40;1.30;;;;;;;;;;4975256;28;20022;-62
2023/08/17 10:02:53;;;;;;;5.10;1.30;;;;;;;;;;4974004;28;20392;-62
2023/08/17 10:05:20;;;;;;;3.40;1.10;;;;;;;;;;4975150;28;20022;-62
2023/08/17 10:07:56;;;;;;;4.35;1.20;;;;;;;;;;4974800;28;20400;-63
2023/08/17 10:10:25;;;;;;;3.35;1.15;;;;;;;;;;4974382;28;20027;-62
2023/08/17 10:13:26;;;;;;;3.85;1.00;;;;;;;;;;4974923;28;20383;-62
2023/08/17 10:16:08;;;;;;;5.50;2.60;;;;;;;;;;4989108;28;20033;-62
2023/08/17 10:19:06;;;;;;;3.92;1.20;;;;;;;;;;4994149;28;20027;-62
2023/08/17 10:21:39;;;;;;;2.70;1.17;;;;;;;;;;4993972;28;20034;-62
2023/08/17 10:24:07;;;;;;;3.08;1.00;;;;;;;;;;4993000;28;20129;-62
2023/08/17 10:26:33;;;;;;;3.83;0.85;;;;;;;;;;4974545;28;20105;-62
2023/08/17 10:29:01;;;;;;;2.42;1.20;;;;;;;;;;4974571;28;20038;-62
2023/08/17 10:31:27;;;;;;;9.07;1.00;;;;;;;;;;4974525;28;20164;-63
2023/08/17 10:33:53;;;;;;;2.60;0.90;;;;;;;;;;4974665;28;20042;-62
2023/08/17 10:36:19;;;;;;;4.00;1.08;;;;;;;;;;4974491;28;20035;-62
2023/08/17 10:38:45;;;;;;;1.95;0.90;;;;;;;;;;4974401;28;20103;-62
2023/08/17 10:41:12;;;;;;;1.60;0.90;;;;;;;;;;4984406;28;20101;-65
2023/08/17 10:43:54;;;;;;;3.08;0.80;;;;;;;;;;4992595;28;20030;-62
2023/08/17 10:46:20;;;;;;;2.08;0.90;;;;;;;;;;4993541;28;20026;-62
2023/08/17 10:48:45;;;;;;;4.95;1.13;;;;;;;;;;4988004;28;20027;-63
2023/08/17 10:51:14;;;;;;;1.90;0.80;;;;;;;;;;4974312;28;20354;-62
2023/08/17 10:53:43;;;;;;;1.90;0.88;;;;;;;;;;4973986;28;20496;-62
2023/08/17 10:56:11;;;;;;;3.63;1.20;;;;;;;;;;4974281;28;20081;-62
2023/08/17 10:58:37;;;;;;;3.38;1.10;;;;;;;;;;4974144;28;20034;-62
2023/08/17 11:01:03;;;;;;;2.50;0.98;;;;;;;;;;4974032;28;20030;-62
2023/08/17 11:03:28;;;;;;;6.55;1.13;;;;;;;;;;4973961;28;20129;-62
2023/08/17 11:05:58;;;;;;;4.93;1.08;;;;;;;;;;4973109;28;20093;-72
2023/08/17 11:08:50;;;;;;;7.15;1.25;;;;;;;;;;4962749;28;20034;-62
2023/08/17 11:11:15;;;;;;;2.05;1.10;;;;;;;;;;4963789;28;20466;-62
2023/08/17 11:13:45;;;;;;;3.47;1.15;;;;;;;;;;4954681;29;20477;-67
2023/08/17 11:16:12;;;;;;;3.15;1.20;;;;;;;;;;4972046;28;20031;-64
2023/08/17 11:18:38;;;;;;;2.47;1.10;;;;;;;;;;4973877;28;20275;-65
2023/08/17 11:21:05;;;;;;;3.08;1.20;;;;;;;;;;4973767;28;20436;-73
2023/08/17 11:23:32;;;;;;;4.40;1.10;;;;;;;;;;4972279;28;20046;-73
2023/08/17 11:25:58;;;;;;;2.40;1.05;;;;;;;;;;4973733;28;20034;-73
2023/08/17 11:28:24;;;;;;;4.22;1.10;;;;;;;;;;4973478;28;20082;-73
2023/08/17 11:31:01;;;;;;;4.20;1.00;;;;;;;;;;4973836;28;20031;-71
2023/08/17 11:33:27;;;;;;;2.85;1.02;;;;;;;;;;4973470;28;20054;-66
2023/08/17 11:36:01;;;;;;;2.67;1.08;;;;;;;;;;4973649;28;20066;-71
2023/08/17 11:38:34;;;;;;;5.78;1.17;;;;;;;;;;4973689;28;20473;-66
2023/08/17 11:41:00;;;;;;;4.68;1.50;;;;;;;;;;4982109;28;20049;-72
2023/08/17 11:43:27;;;;;;;3.80;1.00;;;;;;;;;;4992934;28;20480;-71
2023/08/17 11:45:54;;;;;;;4.07;1.00;;;;;;;;;;4993116;28;20042;-72
2023/08/17 11:48:19;;;;;;;1.83;0.90;;;;;;;;;;4990669;28;20031;-70
2023/08/17 11:50:45;;;;;;;1.98;0.90;;;;;;;;;;4973519;28;20027;-72
2023/08/17 11:53:11;;;;;;;2.45;1.00;;;;;;;;;;4973364;28;20432;-72
2023/08/17 11:55:36;;;;;;;1.95;0.88;;;;;;;;;;4973271;28;20480;-65
2023/08/17 11:58:02;;;;;;;2.67;0.80;;;;;;;;;;4973617;28;20030;-69
2023/08/17 12:00:34;;;;;;;4.22;0.95;;;;;;;;;;4973446;28;20085;-73
2023/08/17 12:03:00;;;;;;;2.58;1.05;;;;;;;;;;4972302;28;20387;-71
2023/08/17 12:05:27;;;;;;;3.97;1.00;;;;;;;;;;4973111;28;20029;-72
2023/08/17 12:07:53;;;;;;;3.45;1.00;;;;;;;;;;4973640;28;20027;-64
2023/08/17 12:10:19;;;;;;;2.78;1.10;;;;;;;;;;4973364;28;20038;-67
2023/08/17 12:12:47;;;;;;;2.85;1.00;;;;;;;;;;4973327;28;20081;-64
2023/08/17 12:15:13;;;;;;;2.25;1.00;;;;;;;;;;4982136;28;20057;-66
2023/08/17 12:17:46;;;;;;;2.90;1.15;;;;;;;;;;4992726;28;20045;-72
2023/08/17 12:20:18;;;;;;;2.42;1.02;;;;;;;;;;4992555;28;20022;-73
2023/08/17 12:22:44;;;;;;;3.08;0.93;;;;;;;;;;4992585;28;20031;-73
2023/08/17 12:25:10;;;;;;;4.95;1.17;;;;;;;;;;4981925;28;20045;-73
2023/08/17 12:27:36;;;;;;;4.38;1.00;;;;;;;;;;4972925;28;20027;-74
2023/08/17 12:30:01;;;;;;;4.30;1.10;;;;;;;;;;4973079;28;20356;-71
2023/08/17 12:32:27;;;;;;;3.97;0.85;;;;;;;;;;4973297;28;20109;-64
2023/08/17 12:34:52;;;;;;;2.75;0.93;;;;;;;;;;4975365;28;20027;-66
2023/08/17 12:37:20;;;;;;;4.63;1.30;;;;;;;;;;4976683;28;20022;-63
2023/08/17 12:39:47;;;;;;;2.65;1.17;;;;;;;;;;4976584;28;20038;-63
2023/08/17 12:42:13;;;;;;;2.05;1.00;;;;;;;;;;4994929;28;20034;-62
2023/08/17 12:44:39;;;;;;;3.22;1.05;;;;;;;;;;4996207;28;20479;-63
2023/08/17 12:47:04;;;;;;;3.80;1.10;;;;;;;;;;4995806;28;20097;-63
2023/08/17 12:49:30;;;;;;;2.97;1.15;;;;;;;;;;4984198;28;20105;-62
2023/08/17 12:51:55;;;;;;;3.25;1.10;;;;;;;;;;4975237;28;20027;-63
2023/08/17 12:54:21;;;;;;;1.73;0.93;;;;;;;;;;4976354;28;20019;-62
2023/08/17 12:56:46;;;;;;;2.10;1.20;;;;;;;;;;4976508;28;20082;-63
2023/08/17 12:59:12;;;;;;;2.03;0.80;;;;;;;;;;4976350;28;20542;-72
2023/08/17 13:01:38;;;;;;;2.95;1.00;;;;;;;;;;4976210;28;20042;-70
2023/08/17 13:04:04;;;;;;;3.45;1.10;;;;;;;;;;4976050;28;20027;-71
2023/08/17 13:06:29;;;;;;;3.88;1.10;;;;;;;;;;4976193;28;20053;-68
2023/08/17 13:08:55;;;;;;;15.88;3.20;;;;;;;;;;4976103;28;20031;-63
2023/08/17 13:11:20;;;;;;;12.05;1.98;;;;;;;;;;4975485;28;20022;-64
2023/08/17 13:13:46;;;;;;;15.68;2.92;;;;;;;;;;4975195;28;20023;-65
2023/08/17 13:16:11;;;;;;;2.03;0.90;;;;;;;;;;4992359;28;20022;-69
2023/08/17 13:18:37;;;;;;;2.30;1.00;;;;;;;;;;4995170;28;20018;-69
2023/08/17 13:21:03;;;;;;;5.65;1.70;;;;;;;;;;4995376;28;20118;-72
2023/08/17 13:23:28;;;;;;;6.22;1.30;;;;;;;;;;4994043;28;20058;-69
2023/08/17 13:25:54;;;;;;;2.15;1.02;;;;;;;;;;4978245;28;20074;-72
2023/08/17 13:28:19;;;;;;;3.33;1.33;;;;;;;;;;4974031;28;20106;-63
2023/08/17 13:30:45;;;;;;;4.75;1.80;;;;;;;;;;4974233;28;20035;-64
2023/08/17 13:33:10;;;;;;;2.88;1.27;;;;;;;;;;4974267;28;20035;-65
2023/08/17 13:35:36;;;;;;;2.90;1.15;;;;;;;;;;4974504;28;20034;-71
2023/08/17 13:38:04;;;;;;;4.82;1.35;;;;;;;;;;4974579;28;20030;-70
2023/08/17 13:40:30;;;;;;;5.32;1.50;;;;;;;;;;4979681;28;20059;-72
2023/08/17 13:42:55;;;;;;;4.57;1.40;;;;;;;;;;4994963;28;20061;-73
2023/08/17 13:45:21;;;;;;;2.83;1.00;;;;;;;;;;4993609;28;20062;-70
2023/08/17 13:47:46;;;;;;;1.73;0.93;;;;;;;;;;4994742;28;20034;-68
2023/08/17 13:50:12;;;;;;;6.90;1.20;;;;;;;;;;4977288;28;20019;-72
2023/08/17 13:52:37;;;;;;;2.63;1.17;;;;;;;;;;4975064;28;20450;-69
2023/08/17 13:55:03;;;;;;;3.10;1.00;;;;;;;;;;4975124;28;20407;-62
2023/08/17 13:57:29;;;;;;;3.63;1.00;;;;;;;;;;4975029;28;20034;-67
2023/08/17 13:59:54;;;;;;;8.68;1.30;;;;;;;;;;4974997;28;20062;-72
2023/08/17 14:02:20;;;;;;;4.15;1.10;;;;;;;;;;4974915;28;20033;-73
2023/08/17 14:04:45;;;;;;;4.57;1.17;;;;;;;;;;4975150;28;20074;-73
2023/08/17 14:07:11;;;;;;;4.30;1.23;;;;;;;;;;4974882;28;20019;-63
2023/08/17 14:09:36;;;;;;;1.70;0.93;;;;;;;;;;4974715;28;20081;-69
2023/08/17 14:12:02;;;;;;;4.75;1.10;;;;;;;;;;4974711;28;20023;-64
2023/08/17 14:14:28;;;;;;;4.90;1.50;;;;;;;;;;4977230;28;20078;-68
2023/08/17 14:16:53;;;;;;;49.95;6.78;;;;;;;;;;4994140;28;20034;-71
2023/08/17 14:19:19;;;;;;;85.53;11.77;;;;;;;;;;4994303;28;20038;-64
2023/08/17 14:21:44;;;;;;;8.02;2.28;;;;;;;;;;4992665;28;20036;-71
2023/08/17 14:24:10;;;;;;;15.60;3.40;;;;;;;;;;4992144;28;20149;-73
2023/08/17 14:26:36;;;;;;;17.42;2.90;;;;;;;;;;4974642;28;20034;-66
2023/08/17 14:29:01;;;;;;;4.85;1.73;;;;;;;;;;4974484;28;20486;-69
2023/08/17 14:31:27;;;;;;;19.77;3.35;;;;;;;;;;4974299;28;20084;-73
2023/08/17 14:33:52;;;;;;;23.10;4.50;;;;;;;;;;4974560;28;20468;-73
2023/08/17 14:36:18;;;;;;;5.82;1.83;;;;;;;;;;4974241;28;20137;-64
2023/08/17 14:38:43;;;;;;;3.20;1.45;;;;;;;;;;4974410;28;20034;-67